Hauptseite
METAR-TAF:

METAR-TAF

Flughäfen :

Flughafen Portorož

Portorož, Slowenien

Breite: 45-31N, Länge: 013-34E, Höhe: 95 m

Beobachtung

Neuester Wetterbericht von vor 43 Minuten, um 01:30 UTC
Wind 5 kt aus Ost/Südost
Temperatur 20°C
Luftfeuchtigkeit 78%
Luftdruck 1016 hPa
Sichtweite 10 km oder mehr

METAR: LJPZ 180130Z AUTO 12005KT 9999 NSC 20/16 Q1016

Zeit: 04:13 (02:13 UTC)

Prognose

Neuester Wetterbericht von vor 3 Stunden und 13 Minuten, um 23:00 UTC
Gültige Prognose vom 18 um 00 UTC bis 18 um 09 UTC
Wind 5 kt aus Ost/Südost
Sichtweite 10 km oder mehr
keine Wolken unter 1500 m und keine Kumulonimbus oder Gewitterwolken
Wahrscheinlichkeit 30% :
Zeitweise
vom 18 um 00 UTC bis 18 um 03 UTC
Leicht bewölkt in der Höhe von 5000 ft, Kumulonimbus.

TAF: LJPZ 172300Z 1800/1809 12005KT CAVOK PROB30 TEMPO 1800/1803 FEW050CB

Wetterbeobachtungen und Prognosen von mehr als 4000 Flughäfen (METAR und TAF Bericht).

Die verfügbaren Stationen werden durch gelbe und rote Markierungen auf der Karte dargestellt.

Führen Sie die Maus auf sie, um den Namen der Station zu sehen.

Darauf klicken, um die Beobachtung von Wetterbeobachtungen und Prognosen zu sehen.

Um die Karte zu ändern : klicken Sie auf den grünen Tasten mit einem schwarzen Kreuz Zum Vergrößern, auf den grünen Button mit einem Gedankenstrich zu verkleinern, oder auf die grünen Pfeile für benachbarte Karten.


METAR-TAF: